CheckWX is a tool to help pilots better visualize weather data.  It is not intended as a substitute for an official pre-flight weather briefing.

12:21:19 UTC

KBYL METAR
Williamsburg-Whitley County Airport
Williamsburg, Kentucky, USA
Current

26 mins ago

KBYL 161155Z AUTO 13005KT 10SM CLR 22/22 A3014 RMK AO1
Observed
Jul-16 @ 11:55 UTC
Wind
  • 130° at 5 KTS
Visibility
10 SM
Flight Rules
VFR
Cloud Levels
  • Clear skies
Temperature
22°C / 72°F
Dewpoint
22°C / 72°F
Humidity
100%
Altimeter
30.14" Hg
Pressure
1020.62 hPa
Previous

46 mins ago

KBYL 161135Z AUTO 13005KT 10SM CLR 22/22 A3013 RMK AO1
Observed
Jul-16 @ 11:35 UTC
Wind
  • 130° at 5 KTS
Visibility
10 SM
Flight Rules
VFR
Cloud Levels
  • Clear skies
Temperature
22°C / 72°F
Dewpoint
22°C / 72°F
Humidity
100%
Altimeter
30.13" Hg
Pressure
1020.32 hPa
Previous

1 hour ago

KBYL 161115Z AUTO 13005KT 10SM CLR 22/22 A3014 RMK AO1
Observed
Jul-16 @ 11:15 UTC
Wind
  • 130° at 5 KTS
Visibility
10 SM
Flight Rules
VFR
Cloud Levels
  • Clear skies
Temperature
22°C / 72°F
Dewpoint
22°C / 72°F
Humidity
100%
Altimeter
30.14" Hg
Pressure
1020.62 hPa